createdAt,value
2022-10-19T00:00:01.503Z,62.50
2022-10-19T00:02:31.277Z,62.90
2022-10-19T00:05:01.073Z,62.90
2022-10-19T00:07:33.556Z,63.10
2022-10-19T00:10:03.444Z,64.40
2022-10-19T00:12:33.461Z,64.50
2022-10-19T00:15:03.518Z,65.00
2022-10-19T00:17:33.503Z,64.90
2022-10-19T00:20:03.371Z,65.20
2022-10-19T00:22:36.024Z,66.00
2022-10-19T00:25:06.043Z,66.50
2022-10-19T00:27:35.778Z,67.60
2022-10-19T00:30:05.761Z,67.80
2022-10-19T00:32:35.729Z,67.00
2022-10-19T00:35:05.590Z,68.30
2022-10-19T00:37:37.929Z,68.60
2022-10-19T00:40:09.104Z,68.50
2022-10-19T00:42:38.819Z,68.40
2022-10-19T00:45:15.381Z,69.20
2022-10-19T00:47:46.312Z,69.40
2022-10-19T00:50:17.778Z,69.10
2022-10-19T00:52:50.263Z,69.20
2022-10-19T00:55:20.156Z,69.60
2022-10-19T01:00:40.876Z,73.10
2022-10-19T01:03:12.274Z,73.60
2022-10-19T01:05:42.462Z,75.00
2022-10-19T01:08:14.945Z,76.20
2022-10-19T01:10:55.118Z,76.80
2022-10-19T01:13:35.369Z,77.20
2022-10-19T01:16:10.040Z,77.40
2022-10-19T01:18:47.177Z,78.20
2022-10-19T01:21:26.247Z,78.50
2022-10-19T01:24:25.072Z,78.40
2022-10-19T01:27:30.498Z,79.20
2022-10-19T01:30:08.167Z,79.30
2022-10-19T01:32:50.925Z,79.40
2022-10-19T01:35:28.742Z,79.50
2022-10-19T01:38:07.592Z,79.90
2022-10-19T01:40:45.506Z,80.10
2022-10-19T01:43:24.008Z,80.10
2022-10-19T01:46:00.186Z,79.80
2022-10-19T01:48:34.776Z,79.90
2022-10-19T01:51:08.721Z,80.00
2022-10-19T01:53:43.743Z,79.90
2022-10-19T01:56:15.090Z,80.40
2022-10-19T01:58:46.858Z,80.50
2022-10-19T02:01:22.104Z,80.60
2022-10-19T02:03:52.848Z,80.70
2022-10-19T02:06:23.700Z,81.10
2022-10-19T02:08:56.506Z,81.00
2022-10-19T02:11:26.778Z,80.80
2022-10-19T02:14:02.740Z,81.00
2022-10-19T02:16:40.904Z,81.10
2022-10-19T02:19:12.558Z,81.40
2022-10-19T02:21:42.884Z,81.50
2022-10-19T02:24:12.698Z,81.50
2022-10-19T02:26:43.183Z,81.50
2022-10-19T02:29:16.586Z,81.70
2022-10-19T02:31:49.203Z,81.80
2022-10-19T02:34:19.055Z,81.80
2022-10-19T02:36:48.859Z,81.90
2022-10-19T02:39:19.027Z,81.90
2022-10-19T02:41:54.272Z,81.90
2022-10-19T02:44:28.765Z,81.90
2022-10-19T02:47:05.923Z,81.80
2022-10-19T02:49:39.230Z,81.90
2022-10-19T02:52:11.506Z,81.80
2022-10-19T02:54:43.145Z,81.50
2022-10-19T02:57:19.481Z,80.70
2022-10-19T02:59:49.818Z,80.30
2022-10-19T03:02:23.695Z,79.30
2022-10-19T03:04:53.426Z,78.70
2022-10-19T03:07:24.162Z,77.80
2022-10-19T03:09:54.221Z,77.40
2022-10-19T03:12:23.930Z,76.30
2022-10-19T03:14:53.717Z,75.70
2022-10-19T03:17:26.015Z,75.60
2022-10-19T03:19:55.733Z,75.70
2022-10-19T03:22:25.491Z,75.30
2022-10-19T03:24:55.165Z,74.80
2022-10-19T03:27:24.888Z,74.50
2022-10-19T03:29:54.595Z,74.30
2022-10-19T03:32:26.996Z,74.90
2022-10-19T03:34:56.683Z,74.50
2022-10-19T03:37:26.382Z,74.20
2022-10-19T03:39:56.081Z,74.80
2022-10-19T03:42:25.794Z,74.80
2022-10-19T03:44:55.503Z,75.00
2022-10-19T03:47:27.861Z,75.50
2022-10-19T03:49:57.565Z,76.60
2022-10-19T03:52:27.266Z,76.30
2022-10-19T03:54:56.979Z,76.60
2022-10-19T03:57:26.696Z,76.30
2022-10-19T03:59:56.396Z,76.60
2022-10-19T04:02:28.779Z,77.30
2022-10-19T04:04:58.485Z,77.20
2022-10-19T04:07:28.275Z,77.30
2022-10-19T04:09:58.016Z,77.50
2022-10-19T04:12:27.810Z,77.70
2022-10-19T04:14:58.004Z,77.70
2022-10-19T04:17:31.000Z,78.50
2022-10-19T04:20:00.862Z,78.90
2022-10-19T04:22:30.593Z,79.70
2022-10-19T04:25:00.307Z,80.00
2022-10-19T04:27:30.018Z,80.00
2022-10-19T04:29:59.691Z,80.00
2022-10-19T04:32:31.977Z,79.50
2022-10-19T04:35:01.668Z,79.60
2022-10-19T04:37:31.758Z,79.70
2022-10-19T04:40:01.761Z,79.90
2022-10-19T04:42:31.480Z,80.80
2022-10-19T04:45:01.185Z,81.00
2022-10-19T04:47:34.553Z,81.00
2022-10-19T04:50:04.578Z,81.00
2022-10-19T04:52:35.264Z,81.30
2022-10-19T04:55:05.021Z,81.30
2022-10-19T04:57:35.110Z,81.30
2022-10-19T05:00:05.699Z,81.10
2022-10-19T05:02:38.069Z,81.30
2022-10-19T05:05:08.829Z,81.40
2022-10-19T05:07:38.744Z,81.40
2022-10-19T05:10:10.397Z,81.30
2022-10-19T05:12:40.166Z,81.30
2022-10-19T05:15:11.532Z,81.60
2022-10-19T05:17:43.836Z,81.10
2022-10-19T05:20:14.198Z,81.10
2022-10-19T05:22:43.975Z,81.10
2022-10-19T05:25:13.761Z,81.10
2022-10-19T05:27:43.534Z,81.00
2022-10-19T05:30:14.522Z,81.00
2022-10-19T05:32:46.828Z,80.90
2022-10-19T05:35:18.756Z,80.90
2022-10-19T05:37:51.354Z,80.90
2022-10-19T05:40:21.043Z,80.90
2022-10-19T05:42:50.747Z,80.80
2022-10-19T05:45:20.512Z,80.60
2022-10-19T05:47:52.814Z,80.90
2022-10-19T05:50:22.509Z,80.60
2022-10-19T05:52:52.266Z,80.60
2022-10-19T05:55:22.031Z,80.70
2022-10-19T05:57:52.478Z,80.60
2022-10-19T06:00:22.451Z,80.50
2022-10-19T06:02:59.042Z,80.60
2022-10-19T06:05:29.060Z,80.60
2022-10-19T06:07:58.780Z,80.60
2022-10-19T06:10:28.584Z,80.70
2022-10-19T06:12:58.379Z,80.70
2022-10-19T06:15:28.298Z,80.70
2022-10-19T06:18:00.580Z,80.80
2022-10-19T06:20:30.289Z,80.70
2022-10-19T06:23:00.032Z,81.00
2022-10-19T06:25:29.755Z,80.70
2022-10-19T06:27:59.560Z,80.80
2022-10-19T06:30:29.895Z,80.80
2022-10-19T06:35:33.659Z,81.00
2022-10-19T06:38:03.665Z,81.00
2022-10-19T06:40:33.936Z,81.00
2022-10-19T06:43:03.727Z,81.00
2022-10-19T06:45:36.048Z,80.90
2022-10-19T06:48:09.138Z,80.20
2022-10-19T06:50:38.933Z,79.30
2022-10-19T06:53:08.647Z,78.70
2022-10-19T06:55:39.248Z,76.50
2022-10-19T06:58:08.947Z,76.70
2022-10-19T07:00:38.722Z,75.40
2022-10-19T07:03:11.122Z,73.40
2022-10-19T07:05:40.852Z,71.50
2022-10-19T07:08:10.652Z,70.50
2022-10-19T07:10:40.410Z,67.30
2022-10-19T07:15:39.853Z,61.40
2022-10-19T07:18:12.183Z,61.00
2022-10-19T07:20:41.947Z,59.80
2022-10-19T07:23:11.839Z,56.90
2022-10-19T07:25:41.558Z,57.20
2022-10-19T07:28:11.355Z,57.20
2022-10-19T07:30:41.478Z,58.10
2022-10-19T07:33:13.857Z,57.50
2022-10-19T07:35:43.623Z,58.10
2022-10-19T07:38:13.332Z,58.10
2022-10-19T07:40:46.389Z,57.10
2022-10-19T07:43:17.227Z,57.30
2022-10-19T07:45:46.926Z,57.30
2022-10-19T07:48:19.306Z,56.50
2022-10-19T07:50:50.788Z,55.20
2022-10-19T07:53:20.488Z,56.00
2022-10-19T07:55:50.182Z,57.00
2022-10-19T07:58:19.989Z,57.70
2022-10-19T08:00:49.728Z,58.40
2022-10-19T08:06:13.960Z,59.10
2022-10-19T08:08:43.873Z,57.50
2022-10-19T08:11:16.295Z,57.00
2022-10-19T08:13:46.371Z,55.90
2022-10-19T08:16:27.940Z,52.50
2022-10-19T08:19:03.463Z,52.50
2022-10-19T08:21:33.788Z,51.60
2022-10-19T08:24:03.868Z,50.80
2022-10-19T08:26:35.511Z,52.70
2022-10-19T08:29:07.990Z,53.50
2022-10-19T08:31:38.029Z,52.60
2022-10-19T08:34:10.838Z,51.20
2022-10-19T08:39:30.480Z,49.50
2022-10-19T08:42:04.866Z,49.60
2022-10-19T08:44:55.675Z,49.60
2022-10-19T08:47:40.110Z,49.60
2022-10-19T08:50:21.351Z,49.50
2022-10-19T08:52:57.191Z,49.30
2022-10-19T08:55:36.114Z,47.90
2022-10-19T08:58:19.016Z,48.80
2022-10-19T09:00:55.216Z,48.50
2022-10-19T09:03:44.014Z,46.70
2022-10-19T09:06:27.063Z,48.00
2022-10-19T09:09:00.038Z,46.30
2022-10-19T09:11:33.731Z,47.90
2022-10-19T09:14:08.153Z,47.90
2022-10-19T09:16:37.794Z,48.20
2022-10-19T09:19:15.625Z,47.00
2022-10-19T09:21:53.548Z,47.80
2022-10-19T09:24:41.531Z,46.60
2022-10-19T09:27:20.947Z,45.80
2022-10-19T09:29:56.580Z,44.10
2022-10-19T09:32:31.213Z,44.60
2022-10-19T09:35:04.130Z,43.50
2022-10-19T09:37:44.909Z,41.90
2022-10-19T09:40:19.696Z,40.30
2022-10-19T09:42:56.702Z,39.60
2022-10-19T09:45:39.058Z,38.00
2022-10-19T09:48:19.546Z,34.70
2022-10-19T09:50:56.981Z,31.20
2022-10-19T09:53:30.857Z,28.20
2022-10-19T09:56:03.286Z,26.20
2022-10-19T09:58:33.529Z,26.20
2022-10-19T10:01:04.997Z,26.30
2022-10-19T10:03:39.390Z,26.30
2022-10-19T10:06:09.868Z,26.20
2022-10-19T10:08:49.631Z,26.20
2022-10-19T10:11:26.877Z,27.00
2022-10-19T10:13:58.276Z,25.20
2022-10-19T10:16:33.735Z,23.90
2022-10-19T10:19:06.944Z,25.00
2022-10-19T10:21:48.057Z,22.70
2022-10-19T10:24:23.593Z,23.10
2022-10-19T10:26:55.681Z,19.50
2022-10-19T10:29:27.636Z,18.90
2022-10-19T10:32:01.562Z,19.70
2022-10-19T10:34:46.055Z,19.30
2022-10-19T10:37:23.032Z,18.10
2022-10-19T10:40:01.769Z,16.80
2022-10-19T10:42:39.211Z,17.60
2022-10-19T10:45:20.327Z,14.10
2022-10-19T10:47:50.976Z,14.30
2022-10-19T10:50:25.584Z,14.10
2022-10-19T10:53:03.588Z,14.90
2022-10-19T10:55:37.161Z,15.60
2022-10-19T10:58:17.599Z,14.50
2022-10-19T11:00:48.063Z,14.70
2022-10-19T11:03:23.915Z,12.70
2022-10-19T11:05:59.878Z,12.60
2022-10-19T11:08:34.569Z,12.60
2022-10-19T11:11:15.747Z,13.50
2022-10-19T11:13:51.378Z,14.20
2022-10-19T11:16:24.562Z,12.40
2022-10-19T11:19:00.694Z,12.90
2022-10-19T11:21:38.550Z,12.50
2022-10-19T11:24:18.741Z,12.50
2022-10-19T11:27:05.302Z,12.70
2022-10-19T11:29:51.696Z,9.20
2022-10-19T11:32:29.433Z,7.00
2022-10-19T11:35:14.932Z,5.80
2022-10-19T11:38:18.062Z,3.30
2022-10-19T11:41:13.243Z,4.40
2022-10-19T11:43:56.125Z,4.00
2022-10-19T11:46:32.334Z,3.00
2022-10-19T11:49:21.038Z,2.70
2022-10-19T11:51:58.583Z,2.80
2022-10-19T11:54:41.370Z,2.10
2022-10-19T11:57:18.740Z,1.20
2022-10-19T12:00:15.061Z,1.30
2022-10-19T12:03:22.681Z,1.00
2022-10-19T12:06:10.953Z,1.00
2022-10-19T12:08:59.872Z,1.00
2022-10-19T12:11:40.300Z,1.00
2022-10-19T12:14:16.106Z,1.00
2022-10-19T12:16:52.323Z,1.70
2022-10-19T12:19:26.911Z,1.00
2022-10-19T12:21:59.427Z,1.00
2022-10-19T12:24:31.929Z,1.00
2022-10-19T12:27:03.255Z,1.00
2022-10-19T12:29:36.592Z,1.00
2022-10-19T12:32:10.050Z,1.00
2022-10-19T12:34:47.258Z,1.00
2022-10-19T12:37:26.436Z,1.00
2022-10-19T12:40:03.414Z,1.00
2022-10-19T12:42:40.025Z,1.00
2022-10-19T12:45:19.677Z,1.00
2022-10-19T12:48:25.630Z,1.00
2022-10-19T12:51:11.978Z,1.00
2022-10-19T12:53:44.279Z,1.00
2022-10-19T12:56:19.847Z,1.00
2022-10-19T12:58:56.899Z,1.00
2022-10-19T13:01:30.048Z,1.00
2022-10-19T13:04:15.275Z,1.00
2022-10-19T13:06:50.156Z,1.00
2022-10-19T13:09:27.303Z,1.00
2022-10-19T13:12:27.195Z,1.00
2022-10-19T13:14:59.051Z,1.00
2022-10-19T13:17:44.121Z,1.00
2022-10-19T13:20:50.642Z,1.00
2022-10-19T13:23:45.395Z,1.00
2022-10-19T13:26:35.641Z,1.00
2022-10-19T13:29:05.397Z,1.00
2022-10-19T13:31:37.477Z,1.00
2022-10-19T13:34:13.097Z,1.00
2022-10-19T13:37:02.620Z,1.00
2022-10-19T13:39:41.463Z,1.00
2022-10-19T13:42:26.384Z,1.00
2022-10-19T13:44:56.399Z,1.00
2022-10-19T13:47:39.306Z,1.00
2022-10-19T13:50:30.148Z,1.00
2022-10-19T13:53:27.295Z,1.00
2022-10-19T13:56:33.054Z,1.00
2022-10-19T13:59:27.823Z,1.00
2022-10-19T14:02:23.935Z,1.00
2022-10-19T14:05:09.358Z,1.00
2022-10-19T14:07:48.462Z,1.00
2022-10-19T14:10:22.719Z,1.00
2022-10-19T14:13:01.386Z,1.00
2022-10-19T14:15:33.595Z,1.00
2022-10-19T14:18:05.815Z,1.00
2022-10-19T14:20:38.153Z,1.00
2022-10-19T14:23:30.051Z,1.00
2022-10-19T14:26:03.365Z,1.00
2022-10-19T14:28:36.324Z,1.00
2022-10-19T14:31:10.552Z,1.00
2022-10-19T14:33:41.303Z,1.00
2022-10-19T14:36:19.403Z,1.00
2022-10-19T14:38:51.265Z,1.00
2022-10-19T14:41:23.588Z,1.00
2022-10-19T14:43:58.294Z,1.00
2022-10-19T14:46:31.314Z,1.00
2022-10-19T14:49:06.510Z,1.00
2022-10-19T14:51:42.895Z,1.00
2022-10-19T14:54:28.976Z,1.00
2022-10-19T14:57:03.195Z,1.00
2022-10-19T14:59:37.851Z,1.00
2022-10-19T15:02:16.542Z,1.00
2022-10-19T15:04:46.419Z,1.00
2022-10-19T15:07:21.395Z,1.00
2022-10-19T15:09:55.455Z,1.00
2022-10-19T15:12:31.164Z,1.00
2022-10-19T15:15:03.704Z,1.00
2022-10-19T15:17:36.102Z,1.00
2022-10-19T15:20:26.048Z,1.00
2022-10-19T15:22:55.856Z,1.00
2022-10-19T15:25:36.954Z,1.00
2022-10-19T15:28:23.673Z,1.00
2022-10-19T15:31:08.025Z,1.00
2022-10-19T15:33:41.921Z,1.00
2022-10-19T15:36:17.343Z,1.00
2022-10-19T15:38:48.551Z,1.00
2022-10-19T15:41:24.275Z,1.00
2022-10-19T15:43:56.638Z,1.00
2022-10-19T15:46:31.647Z,1.00
2022-10-19T15:49:04.522Z,1.00
2022-10-19T15:51:46.298Z,1.00
2022-10-19T15:54:19.097Z,1.10
2022-10-19T15:56:50.357Z,1.30
2022-10-19T15:59:21.816Z,1.50
2022-10-19T16:01:56.170Z,3.70
2022-10-19T16:04:26.201Z,3.70
2022-10-19T16:06:55.989Z,4.90
2022-10-19T16:09:25.738Z,5.70
2022-10-19T16:11:57.241Z,5.60
2022-10-19T16:14:28.369Z,5.90
2022-10-19T16:17:00.690Z,6.40
2022-10-19T16:19:30.520Z,6.60
2022-10-19T16:22:00.308Z,6.30
2022-10-19T16:24:30.065Z,6.90
2022-10-19T16:26:59.805Z,7.60
2022-10-19T16:29:29.704Z,6.70
2022-10-19T16:32:02.345Z,7.90
2022-10-19T16:34:32.237Z,6.90
2022-10-19T16:37:04.263Z,7.80
2022-10-19T16:39:36.669Z,8.10
2022-10-19T16:42:06.852Z,9.30
2022-10-19T16:44:36.922Z,10.10
2022-10-19T16:47:09.284Z,11.00
2022-10-19T16:49:39.166Z,10.80
2022-10-19T16:52:08.987Z,10.80
2022-10-19T16:54:39.043Z,10.50
2022-10-19T16:57:11.464Z,10.60
2022-10-19T16:59:41.251Z,10.30
2022-10-19T17:02:14.210Z,11.00
2022-10-19T17:04:43.942Z,9.90
2022-10-19T17:07:14.166Z,8.90
2022-10-19T17:09:44.408Z,9.10
2022-10-19T17:12:14.775Z,9.90
2022-10-19T17:14:45.769Z,10.20
2022-10-19T17:17:18.108Z,9.90
2022-10-19T17:19:48.739Z,10.00
2022-10-19T17:22:18.585Z,11.60
2022-10-19T17:24:48.901Z,11.50
2022-10-19T17:27:18.832Z,12.20
2022-10-19T17:29:48.709Z,12.30
2022-10-19T17:32:21.027Z,13.10
2022-10-19T17:34:50.903Z,13.50
2022-10-19T17:37:20.622Z,13.40
2022-10-19T17:39:53.492Z,14.30
2022-10-19T17:42:23.244Z,15.90
2022-10-19T17:44:53.043Z,16.10
2022-10-19T17:47:25.376Z,16.40
2022-10-19T17:49:55.152Z,16.50
2022-10-19T17:52:24.923Z,16.30
2022-10-19T17:55:13.303Z,15.90
2022-10-19T17:57:43.361Z,16.50
2022-10-19T18:00:14.224Z,17.40
2022-10-19T18:02:47.516Z,17.70
2022-10-19T18:05:17.499Z,17.70
2022-10-19T18:07:49.203Z,18.80
2022-10-19T18:10:19.091Z,20.80
2022-10-19T18:12:48.852Z,22.10
2022-10-19T18:15:18.771Z,23.20
2022-10-19T18:17:51.104Z,24.30
2022-10-19T18:20:21.023Z,24.40
2022-10-19T18:22:50.763Z,24.50
2022-10-19T18:25:25.950Z,25.30
2022-10-19T18:28:06.183Z,27.50
2022-10-19T18:30:39.133Z,26.70
2022-10-19T18:33:11.933Z,26.80
2022-10-19T18:35:42.838Z,26.80
2022-10-19T18:38:12.607Z,28.10
2022-10-19T18:40:42.494Z,28.30
2022-10-19T18:43:12.280Z,28.20
2022-10-19T18:45:42.250Z,28.60
2022-10-19T18:48:14.897Z,29.40
2022-10-19T18:50:47.195Z,30.10
2022-10-19T18:53:16.947Z,30.80
2022-10-19T18:55:47.452Z,32.30
2022-10-19T18:58:17.189Z,32.70
2022-10-19T19:00:46.937Z,33.20
2022-10-19T19:03:20.569Z,33.90
2022-10-19T19:05:50.353Z,34.50
2022-10-19T19:08:20.072Z,35.10
2022-10-19T19:10:49.792Z,36.10
2022-10-19T19:13:19.567Z,36.30
2022-10-19T19:15:59.024Z,36.30
2022-10-19T19:18:33.699Z,36.30
2022-10-19T19:21:03.590Z,36.30
2022-10-19T19:23:33.416Z,36.40
2022-10-19T19:26:06.267Z,36.80
2022-10-19T19:28:39.153Z,37.10
2022-10-19T19:31:15.287Z,37.20
2022-10-19T19:33:48.719Z,37.50
2022-10-19T19:36:20.913Z,38.10
2022-10-19T19:38:53.790Z,38.00
2022-10-19T19:41:23.821Z,37.90
2022-10-19T19:43:53.676Z,38.20
2022-10-19T19:46:23.708Z,38.60
2022-10-19T19:49:01.399Z,38.50
2022-10-19T19:51:33.017Z,38.60
2022-10-19T19:54:02.994Z,38.30
2022-10-19T19:56:32.890Z,38.60
2022-10-19T19:59:03.833Z,38.40
2022-10-19T20:01:35.877Z,38.40
2022-10-19T20:04:09.118Z,38.00
2022-10-19T20:06:40.705Z,38.00
2022-10-19T20:09:11.263Z,38.40
2022-10-19T20:11:42.894Z,39.20
2022-10-19T20:14:13.172Z,39.40
2022-10-19T20:16:43.471Z,40.10
2022-10-19T20:19:16.726Z,40.10
2022-10-19T20:21:46.487Z,40.60
2022-10-19T20:24:16.263Z,41.00
2022-10-19T20:26:46.059Z,41.20
2022-10-19T20:29:15.804Z,41.70
2022-10-19T20:31:45.631Z,41.60
2022-10-19T20:34:23.158Z,41.80
2022-10-19T20:36:53.634Z,42.10
2022-10-19T20:39:23.364Z,42.10
2022-10-19T20:41:53.074Z,42.20
2022-10-19T20:44:22.991Z,42.00
2022-10-19T20:46:52.962Z,42.40
2022-10-19T20:49:25.494Z,42.50
2022-10-19T20:51:56.714Z,42.20
2022-10-19T20:54:26.546Z,42.50
2022-10-19T20:56:56.266Z,42.80
2022-10-19T20:59:27.823Z,42.90
2022-10-19T21:01:59.787Z,43.30
2022-10-19T21:04:32.181Z,43.10
2022-10-19T21:07:04.386Z,43.60
2022-10-19T21:09:34.343Z,43.70
2022-10-19T21:12:04.236Z,43.60
2022-10-19T21:14:34.091Z,43.80
2022-10-19T21:17:03.883Z,43.90
2022-10-19T21:19:36.355Z,43.70
2022-10-19T21:22:06.404Z,43.90
2022-10-19T21:24:39.595Z,44.10
2022-10-19T21:27:11.132Z,44.40
2022-10-19T21:29:41.109Z,44.60
2022-10-19T21:32:11.093Z,45.00
2022-10-19T21:34:43.438Z,45.80
2022-10-19T21:37:13.261Z,45.80
2022-10-19T21:39:43.261Z,45.90
2022-10-19T21:42:13.031Z,46.40
2022-10-19T21:44:42.801Z,46.40
2022-10-19T21:47:12.733Z,46.30
2022-10-19T21:49:45.086Z,46.70
2022-10-19T21:52:16.186Z,47.10
2022-10-19T21:54:46.025Z,46.70
2022-10-19T21:57:15.862Z,46.80
2022-10-19T21:59:45.779Z,47.20
2022-10-19T22:02:15.544Z,46.90
2022-10-19T22:04:47.878Z,47.80
2022-10-19T22:07:17.829Z,48.30
2022-10-19T22:09:47.681Z,48.60
2022-10-19T22:12:17.446Z,48.70
2022-10-19T22:14:47.402Z,48.10
2022-10-19T22:17:17.140Z,48.00
2022-10-19T22:19:49.511Z,47.60
2022-10-19T22:22:19.285Z,47.30
2022-10-19T22:24:49.118Z,47.40
2022-10-19T22:27:18.923Z,47.50
2022-10-19T22:29:48.694Z,47.10
2022-10-19T22:32:18.515Z,46.30
2022-10-19T22:34:51.016Z,46.70
2022-10-19T22:37:20.773Z,46.20
2022-10-19T22:39:50.523Z,46.20
2022-10-19T22:42:26.841Z,46.50
2022-10-19T22:44:56.839Z,46.80
2022-10-19T22:47:26.561Z,46.20
2022-10-19T22:49:58.876Z,46.60
2022-10-19T22:52:28.634Z,47.10
2022-10-19T22:54:58.345Z,47.50
2022-10-19T22:57:28.175Z,47.20
2022-10-19T22:59:57.925Z,47.50
2022-10-19T23:02:27.747Z,47.30
2022-10-19T23:05:00.082Z,47.30
2022-10-19T23:07:29.789Z,47.20
2022-10-19T23:09:59.504Z,46.90
2022-10-19T23:12:29.207Z,46.30
2022-10-19T23:14:58.996Z,45.80
2022-10-19T23:17:28.730Z,45.50
2022-10-19T23:20:01.034Z,45.50
2022-10-19T23:22:30.762Z,45.60
2022-10-19T23:25:00.511Z,45.90
2022-10-19T23:27:30.252Z,46.00
2022-10-19T23:29:59.999Z,46.30
2022-10-19T23:32:29.816Z,46.90
2022-10-19T23:35:02.084Z,46.80
2022-10-19T23:37:31.869Z,46.30
2022-10-19T23:40:01.600Z,46.40
2022-10-19T23:42:31.400Z,47.40
2022-10-19T23:45:01.110Z,46.70
2022-10-19T23:47:31.234Z,46.90
2022-10-19T23:50:03.540Z,46.80
2022-10-19T23:52:33.287Z,46.70
2022-10-19T23:55:03.023Z,46.60
2022-10-19T23:57:32.944Z,46.70
